Time;durP1;ratioP1;P1;durP2;ratioP2;P2;SDS_P1;SDS_P2;PMS_P1;PMS_P2;Temp;Humidity;BMP_temperature;BMP_pressure;BME280_temperature;BME280_humidity;BME280_pressure;Samples;Min_cycle;Max_cycle;Signal;HPM_P1;HPM_P2
2022/10/18 00:00:54;;;;;;;;;;;;;;;17.95;78.10;101251.91;5087513;28;20060;-52
2022/10/18 00:03:22;;;;;;;4.07;2.70;;;;;;;17.95;78.15;101254.72;5083412;28;20376;-51
2022/10/18 00:05:50;;;;;;;5.20;3.00;;;;;;;17.94;78.50;101251.09;5091069;28;20441;-50
2022/10/18 00:08:19;;;;;;;4.18;2.70;;;;;;;17.97;78.32;101252.38;5091108;28;20385;-53
2022/10/18 00:10:48;;;;;;;3.72;2.55;;;;;;;17.90;78.06;101252.94;5092184;28;20059;-50
2022/10/18 00:13:15;;;;;;;5.63;2.97;;;;;;;17.95;77.98;101246.25;5091932;28;20060;-48
2022/10/18 00:15:48;;;;;;;6.25;2.60;;;;;;;17.99;77.02;101256.50;5084195;28;20051;-52
2022/10/18 00:18:15;;;;;;;7.28;2.40;;;;;;;18.00;77.23;101246.06;5090255;28;20067;-53
2022/10/18 00:20:43;;;;;;;4.28;2.30;;;;;;;17.98;76.45;101243.59;5092194;28;20056;-51
2022/10/18 00:23:10;;;;;;;3.78;2.45;;;;;;;17.98;77.39;101245.59;5090996;28;20060;-52
2022/10/18 00:25:39;;;;;;;2.85;2.17;;;;;;;17.95;77.25;101241.44;5085215;28;20428;-51
2022/10/18 00:28:08;;;;;;;3.53;2.10;;;;;;;17.96;77.23;101242.28;5075368;28;20067;-50
2022/10/18 00:30:35;;;;;;;4.68;2.22;;;;;;;17.94;76.61;101239.00;5068659;28;20048;-51
2022/10/18 00:33:03;;;;;;;3.67;2.20;;;;;;;17.90;77.03;101240.84;5054849;28;20057;-49
2022/10/18 00:35:30;;;;;;;5.97;2.35;;;;;;;17.91;77.66;101232.06;5051429;28;20060;-49
2022/10/18 00:37:57;;;;;;;2.38;2.00;;;;;;;17.94;77.96;101233.34;5051940;28;20063;-49
2022/10/18 00:40:24;;;;;;;5.85;2.38;;;;;;;17.94;77.99;101233.34;5063247;28;20052;-52
2022/10/18 00:42:53;;;;;;;4.85;2.00;;;;;;;17.95;77.37;101232.16;5072079;28;20511;-52
2022/10/18 00:45:22;;;;;;;3.53;3.10;;;;;;;17.93;77.89;101228.88;5071759;28;20364;-53
2022/10/18 00:47:53;;;;;;;3.60;3.25;;;;;;;17.90;78.06;101227.56;5068508;28;20424;-52
2022/10/18 00:50:21;;;;;;;4.22;3.67;;;;;;;17.92;77.79;101232.88;5071794;28;20053;-52
2022/10/18 00:52:53;;;;;;;5.65;3.13;;;;;;;17.91;77.81;101234.03;5070490;28;20416;-52
2022/10/18 00:55:21;;;;;;;6.05;3.53;;;;;;;17.92;77.82;101230.06;5071939;28;20064;-52
2022/10/18 00:57:49;;;;;;;5.00;3.65;;;;;;;17.89;78.31;101230.72;5071895;28;20052;-49
2022/10/18 01:00:19;;;;;;;5.72;3.92;;;;;;;17.88;77.58;101231.91;5071858;28;20489;-52
2022/10/18 01:02:49;;;;;;;;;;;;;;;17.83;78.00;101227.31;5072196;28;20073;-51
2022/10/18 01:05:18;;;;;;;3.65;3.20;;;;;;;17.83;78.33;101230.97;5071429;28;19920;-52
2022/10/18 01:08:27;;;;;;;7.47;3.65;;;;;;;17.85;78.44;101222.16;5070109;28;20061;-51
2022/10/18 01:11:07;;;;;;;5.47;3.60;;;;;;;17.88;78.47;101212.19;5070914;28;20052;-50
2022/10/18 01:13:48;;;;;;;6.88;3.58;;;;;;;17.90;77.97;101216.31;5075074;28;20466;-52
2022/10/18 01:16:24;;;;;;;5.43;3.10;;;;;;;17.89;77.94;101211.84;5075299;28;20052;-49
2022/10/18 01:18:58;;;;;;;3.78;3.00;;;;;;;17.92;77.89;101218.78;5056105;28;20064;-52
2022/10/18 01:21:37;;;;;;;5.00;3.22;;;;;;;17.95;77.65;101212.44;5063619;28;20412;-53
2022/10/18 01:24:47;;;;;;;6.28;3.58;;;;;;;17.89;77.93;101213.81;5075627;28;20060;-52
2022/10/18 01:27:43;;;;;;;6.28;3.30;;;;;;;17.88;78.11;101213.00;5074862;28;20052;-53
2022/10/18 01:30:36;;;;;;;4.60;3.00;;;;;;;17.89;77.47;101222.28;5075058;28;20063;-51
2022/10/18 01:33:09;;;;;;;5.53;2.80;;;;;;;17.90;77.95;101221.94;5074617;28;20057;-49
2022/10/18 01:35:41;;;;;;;5.80;3.00;;;;;;;17.90;77.83;101221.94;5073189;28;20385;-49
2022/10/18 01:38:16;;;;;;;4.70;2.75;;;;;;;17.92;77.99;101207.50;5074912;28;20064;-50
2022/10/18 01:40:45;;;;;;;2.58;1.90;;;;;;;17.94;77.61;101216.44;5074453;28;20060;-51
2022/10/18 01:43:14;;;;;;;5.28;2.83;;;;;;;17.94;76.96;101210.81;5074904;28;20064;-48
2022/10/18 01:45:43;;;;;;;7.35;2.70;;;;;;;17.93;77.27;101203.50;5074621;28;20063;-49
2022/10/18 01:48:13;;;;;;;3.45;2.35;;;;;;;17.92;77.05;101207.50;5070644;28;20412;-49
2022/10/18 01:50:40;;;;;;;;;;;;;;;17.88;77.47;101212.19;5074666;28;20061;-53
2022/10/18 01:53:24;;;;;;;3.47;2.30;;;;;;;17.89;77.58;101199.72;5074294;28;19920;-52
2022/10/18 01:56:02;;;;;;;3.90;2.40;;;;;;;17.91;77.88;101205.84;5074419;28;20060;-52
2022/10/18 01:58:39;;;;;;;6.05;3.53;;;;;;;17.90;77.98;101192.94;5070805;28;20083;-50
2022/10/18 02:01:14;;;;;;;5.38;2.83;;;;;;;17.88;77.89;101198.09;5074365;28;20067;-52
2022/10/18 02:03:45;;;;;;;9.32;3.17;;;;;;;17.88;78.72;101198.91;5074057;28;20056;-53
2022/10/18 02:06:20;;;;;;;5.03;2.58;;;;;;;17.92;78.13;101196.22;5074196;28;20053;-52
2022/10/18 02:08:52;;;;;;;3.42;2.45;;;;;;;17.92;77.97;101191.41;5073985;28;20421;-52
2022/10/18 02:11:19;;;;;;;5.32;3.10;;;;;;;17.92;78.23;101179.31;5072486;28;20061;-52
2022/10/18 02:13:50;;;;;;;6.40;3.30;;;;;;;17.94;78.13;101182.63;5073946;28;20060;-49
2022/10/18 02:16:24;;;;;;;3.13;2.70;;;;;;;17.95;77.59;101189.88;5073686;28;20057;-49
2022/10/18 02:18:56;;;;;;;5.85;2.72;;;;;;;17.94;77.08;101185.44;5086953;28;20055;-51
2022/10/18 02:21:26;;;;;;;3.90;2.60;;;;;;;17.93;77.89;101180.94;5073617;28;20412;-52
2022/10/18 02:23:54;;;;;;;4.43;2.63;;;;;;;17.95;77.30;101179.44;5073091;28;20056;-49
2022/10/18 02:26:21;;;;;;;3.50;2.50;;;;;;;17.96;77.44;101177.47;5073357;28;20053;-49
2022/10/18 02:28:49;;;;;;;2.88;2.30;;;;;;;17.97;77.85;101184.72;5073463;28;20056;-49
2022/10/18 02:31:25;;;;;;;4.00;2.58;;;;;;;17.99;77.20;101174.75;5073380;28;20068;-51
2022/10/18 02:33:56;;;;;;;3.30;2.83;;;;;;;17.98;77.87;101187.22;5073491;28;20052;-52
2022/10/18 02:36:31;;;;;;;4.25;3.63;;;;;;;17.94;77.29;101183.44;5073420;28;20056;-49
2022/10/18 02:39:03;;;;;;;4.55;3.75;;;;;;;17.89;77.93;101180.84;5072563;28;20497;-53
2022/10/18 02:41:31;;;;;;;4.85;3.92;;;;;;;17.85;77.40;101186.34;5073819;28;20508;-49
2022/10/18 02:44:10;;;;;;;4.70;4.00;;;;;;;17.83;77.92;101188.69;5070588;28;20055;-52
2022/10/18 02:46:39;;;;;;;7.15;4.07;;;;;;;17.82;77.63;101184.19;5073478;28;20067;-60
2022/10/18 02:49:07;;;;;;;5.55;3.60;;;;;;;17.82;77.75;101189.00;5073835;28;20408;-60
2022/10/18 02:51:34;;;;;;;6.10;3.65;;;;;;;17.81;78.20;101193.00;5072258;28;20056;-59
2022/10/18 02:54:07;;;;;;;5.20;4.00;;;;;;;17.81;77.67;101191.00;5070815;28;20064;-60
2022/10/18 02:56:35;;;;;;;7.35;4.18;;;;;;;17.81;77.89;101188.16;5073254;28;20063;-59
2022/10/18 02:59:08;;;;;;;5.22;3.75;;;;;;;17.81;77.84;101190.19;5073592;28;20056;-60
2022/10/18 03:01:47;;;;;;;6.63;4.45;;;;;;;17.76;78.48;101193.19;5073462;28;20068;-62
2022/10/18 03:04:28;;;;;;;4.93;3.83;;;;;;;17.76;77.85;101188.38;5073038;28;20422;-61
2022/10/18 03:06:56;;;;;;;5.68;4.18;;;;;;;17.77;78.32;101194.84;5072331;28;20052;-61
2022/10/18 03:09:27;;;;;;;6.50;3.78;;;;;;;17.76;78.51;101187.56;5072654;28;20500;-62
2022/10/18 03:12:05;;;;;;;5.85;3.83;;;;;;;17.75;78.07;101195.19;5073718;28;20057;-59
2022/10/18 03:14:43;;;;;;;6.30;3.80;;;;;;;17.75;78.49;101186.75;5072610;28;20052;-59
2022/10/18 03:17:31;;;;;;;3.42;3.13;;;;;;;17.73;77.98;101183.44;5078506;28;20059;-61
2022/10/18 03:23:06;;;;;;;3.22;2.78;;;;;;;17.74;78.32;101178.63;5071324;28;20155;-60
2022/10/18 03:25:40;;;;;;;4.75;3.20;;;;;;;17.74;77.93;101190.72;5073309;28;20052;-60
2022/10/18 03:28:10;;;;;;;4.28;3.70;;;;;;;17.77;77.90;101186.41;5072817;28;20499;-60
2022/10/18 03:30:41;;;;;;;5.55;3.60;;;;;;;17.75;78.37;101186.75;5072081;28;20083;-60
2022/10/18 03:33:11;;;;;;;5.90;3.92;;;;;;;17.73;78.26;101191.91;5070784;28;20060;-59
2022/10/18 03:35:38;;;;;;;4.40;3.53;;;;;;;17.72;78.00;101187.41;5071547;28;20056;-60
2022/10/18 03:38:06;;;;;;;6.32;4.10;;;;;;;17.71;78.34;101191.41;5072525;28;20400;-59
2022/10/18 03:40:33;;;;;;;5.43;3.00;;;;;;;17.69;78.73;101184.47;5072412;28;20061;-60
2022/10/18 03:43:00;;;;;;;3.60;3.17;;;;;;;17.70;78.71;101189.78;5069176;28;20052;-60
2022/10/18 03:45:27;;;;;;;5.10;3.15;;;;;;;17.73;78.05;101191.06;5072316;28;20052;-60
2022/10/18 03:47:54;;;;;;;4.10;3.65;;;;;;;17.67;78.69;101187.63;5072047;28;20465;-60
2022/10/18 03:50:23;;;;;;;6.55;3.75;;;;;;;17.68;77.81;101191.28;5072307;28;20056;-60
2022/10/18 03:52:50;;;;;;;6.13;3.73;;;;;;;17.65;78.45;101189.97;5072515;28;20543;-60
2022/10/18 03:55:18;;;;;;;7.55;3.20;;;;;;;17.64;78.51;101191.16;5072223;28;20064;-60
2022/10/18 03:57:45;;;;;;;5.72;3.53;;;;;;;17.62;78.50;101185.03;5070839;28;20053;-60
2022/10/18 04:00:13;;;;;;;5.13;4.07;;;;;;;17.63;78.38;101183.88;5071975;28;20067;-60
2022/10/18 04:02:41;;;;;;;4.80;4.18;;;;;;;17.63;78.50;101192.31;5071916;28;20068;-60
2022/10/18 04:05:11;;;;;;;4.13;3.70;;;;;;;17.61;78.52;101192.66;5072502;28;20493;-60
2022/10/18 04:07:40;;;;;;;6.05;4.32;;;;;;;17.61;78.41;101187.00;5069084;28;20056;-60
2022/10/18 04:10:08;;;;;;;4.07;3.53;;;;;;;17.62;78.38;101194.31;5052236;28;20064;-60
2022/10/18 04:12:35;;;;;;;6.97;4.25;;;;;;;17.63;78.85;101195.13;5051926;28;20057;-60
2022/10/18 04:15:03;;;;;;;6.22;4.20;;;;;;;17.61;78.66;101192.66;5067246;28;20064;-60
2022/10/18 04:17:30;;;;;;;5.75;4.03;;;;;;;17.64;78.74;101189.16;5079652;28;20059;-62
2022/10/18 04:19:57;;;;;;;6.22;4.20;;;;;;;17.64;79.06;101191.16;5092156;28;20055;-60
2022/10/18 04:22:27;;;;;;;7.35;4.38;;;;;;;17.64;78.46;101182.72;5092105;28;20062;-59
2022/10/18 04:24:56;;;;;;;6.65;4.32;;;;;;;17.65;78.94;101190.78;5092159;28;20055;-59
2022/10/18 04:27:24;;;;;;;5.38;3.42;;;;;;;17.64;78.84;101185.53;5082492;28;20448;-57
2022/10/18 04:29:51;;;;;;;6.22;4.38;;;;;;;17.66;78.44;101188.81;5072092;28;20057;-60
2022/10/18 04:32:18;;;;;;;8.13;4.40;;;;;;;17.66;78.57;101188.81;5071463;28;20063;-60
2022/10/18 04:34:46;;;;;;;4.78;4.22;;;;;;;17.66;78.41;101194.47;5070918;28;20079;-59
2022/10/18 04:37:13;;;;;;;6.45;4.20;;;;;;;17.65;78.11;101192.78;5058729;28;20485;-60
2022/10/18 04:39:45;;;;;;;7.78;4.50;;;;;;;17.67;78.50;101192.47;5060501;28;20061;-57
2022/10/18 04:42:14;;;;;;;6.38;4.13;;;;;;;17.68;78.78;101191.28;5067224;28;20064;-60
2022/10/18 04:44:41;;;;;;;6.73;5.00;;;;;;;17.58;78.58;101198.16;5054557;28;20053;-60
2022/10/18 04:47:08;;;;;;;5.60;4.63;;;;;;;17.63;78.40;101201.59;5059788;28;20052;-59
2022/10/18 04:49:35;;;;;;;12.27;5.47;;;;;;;17.65;78.23;101204.06;5060966;28;20420;-58
2022/10/18 04:52:03;;;;;;;4.80;4.30;;;;;;;17.65;78.57;101201.25;5066719;28;20053;-60
2022/10/18 04:54:30;;;;;;;5.30;3.92;;;;;;;17.66;78.60;101202.91;5086168;28;20056;-58
2022/10/18 04:56:57;;;;;;;5.68;4.35;;;;;;;17.65;78.83;101198.44;5068738;28;20489;-55
2022/10/18 04:59:26;;;;;;;5.38;4.60;;;;;;;17.66;78.78;101194.47;5068416;28;20064;-60
2022/10/18 05:01:53;;;;;;;4.97;4.32;;;;;;;17.67;78.55;101200.91;5071182;28;20056;-60
2022/10/18 05:04:20;;;;;;;5.20;3.53;;;;;;;17.72;78.38;101193.03;5084077;28;20052;-59
2022/10/18 05:06:47;;;;;;;5.53;3.70;;;;;;;17.76;78.12;101191.19;5087647;28;20078;-60
2022/10/18 05:09:15;;;;;;;5.45;3.67;;;;;;;17.80;78.42;101194.16;5088300;28;20455;-60
2022/10/18 05:11:42;;;;;;;4.85;4.35;;;;;;;17.77;77.66;101194.84;5089249;28;20056;-60
2022/10/18 05:14:09;;;;;;;7.28;3.90;;;;;;;17.79;78.25;101207.41;5085125;28;20508;-59
2022/10/18 05:16:38;;;;;;;8.43;4.72;;;;;;;17.79;78.25;101201.78;5085679;28;20060;-60
2022/10/18 05:19:06;;;;;;;7.33;4.83;;;;;;;17.78;78.53;101197.31;5085328;28;20052;-59
2022/10/18 05:21:33;;;;;;;5.80;4.18;;;;;;;17.79;77.82;101193.31;5091852;28;20047;-59
2022/10/18 05:24:00;;;;;;;8.13;4.53;;;;;;;17.80;78.13;101192.16;5077146;28;20064;-61
2022/10/18 05:26:28;;;;;;;6.47;4.20;;;;;;;17.84;77.75;101190.31;5071173;28;20063;-61
2022/10/18 05:28:55;;;;;;;5.43;3.90;;;;;;;17.87;78.12;101187.97;5073375;28;20056;-60
2022/10/18 05:31:22;;;;;;;5.07;4.00;;;;;;;17.83;78.46;101191.50;5073421;28;20052;-60
2022/10/18 05:33:51;;;;;;;4.25;3.33;;;;;;;17.84;78.24;101192.31;5046989;28;346174;-60
2022/10/18 05:36:18;;;;;;;9.57;3.80;;;;;;;17.85;77.79;101193.97;5068379;28;20056;-60
2022/10/18 05:38:47;;;;;;;5.50;4.30;;;;;;;17.88;78.00;101192.47;5083157;28;20419;-59
2022/10/18 05:41:14;;;;;;;5.03;3.63;;;;;;;17.86;77.19;101192.78;5076617;28;20079;-60
2022/10/18 05:43:41;;;;;;;7.32;3.30;;;;;;;17.89;77.90;101191.28;5073344;28;20053;-60
2022/10/18 05:46:09;;;;;;;5.93;4.13;;;;;;;17.89;77.64;101194.94;5074537;28;20417;-60
2022/10/18 05:48:36;;;;;;;4.78;3.60;;;;;;;17.92;77.90;101193.41;5072374;28;20056;-59
2022/10/18 05:51:05;;;;;;;4.65;3.88;;;;;;;17.90;77.45;101198.56;5074494;28;20057;-61
2022/10/18 05:53:32;;;;;;;6.10;4.00;;;;;;;17.87;77.71;101190.78;5074487;28;20501;-61
2022/10/18 05:56:00;;;;;;;5.68;4.63;;;;;;;17.85;77.52;101194.78;5074423;28;20063;-60
2022/10/18 05:58:28;;;;;;;6.22;3.92;;;;;;;17.84;77.98;101193.13;5071672;28;20493;-60
2022/10/18 06:00:58;;;;;;;7.07;4.35;;;;;;;17.86;77.44;101189.97;5072502;28;20489;-62
2022/10/18 06:03:27;;;;;;;6.68;4.43;;;;;;;17.83;77.69;101185.88;5073975;28;20096;-60
2022/10/18 06:06:00;;;;;;;6.95;5.00;;;;;;;17.67;78.19;101196.09;5074180;28;20052;-60
2022/10/18 06:08:28;;;;;;;5.65;3.65;;;;;;;17.78;78.12;101204.94;5070124;28;20401;-60
2022/10/18 06:10:56;;;;;;;5.27;4.20;;;;;;;17.78;78.25;101211.41;5064055;28;20428;-60
2022/10/18 06:13:24;;;;;;;6.53;4.57;;;;;;;17.78;77.86;101219.84;5072606;28;20498;-61
2022/10/18 06:15:55;;;;;;;4.80;3.85;;;;;;;17.81;78.09;101222.00;5073595;28;20063;-60
2022/10/18 06:18:22;;;;;;;6.75;3.83;;;;;;;17.83;77.96;101232.97;5088772;28;20415;-60
2022/10/18 06:20:49;;;;;;;6.05;4.10;;;;;;;17.83;77.77;101233.78;5094030;28;20052;-60
2022/10/18 06:23:17;;;;;;;6.97;4.03;;;;;;;17.84;77.66;101234.59;5071681;28;20051;-58
2022/10/18 06:25:45;;;;;;;5.38;3.85;;;;;;;17.87;77.26;101230.25;5087164;28;20471;-56
2022/10/18 06:28:12;;;;;;;5.03;3.80;;;;;;;17.89;77.61;101225.09;5075803;28;20059;-60
2022/10/18 06:30:40;;;;;;;6.15;3.38;;;;;;;17.92;78.05;101227.25;5063295;28;20057;-60
2022/10/18 06:33:07;;;;;;;15.50;6.10;;;;;;;17.95;77.87;101232.97;5053184;28;20060;-59
2022/10/18 06:35:34;;;;;;;11.13;4.85;;;;;;;17.96;77.19;101236.66;5053457;28;20060;-60
2022/10/18 06:38:01;;;;;;;7.93;4.25;;;;;;;17.98;78.03;101239.94;5053285;28;20108;-60
2022/10/18 06:40:29;;;;;;;15.13;5.15;;;;;;;17.99;77.64;101230.31;5053391;28;20068;-60
2022/10/18 06:43:00;;;;;;;18.80;6.05;;;;;;;18.01;77.74;101237.25;5053225;28;20073;-60
2022/10/18 06:45:27;;;;;;;38.28;8.50;;;;;;;18.02;77.81;101243.72;5068849;28;20056;-60
2022/10/18 06:47:54;;;;;;;11.25;5.13;;;;;;;18.02;77.13;101247.34;5072774;28;20053;-60
2022/10/18 06:50:21;;;;;;;7.68;4.63;;;;;;;17.90;77.77;101250.13;5073028;28;20059;-60
2022/10/18 06:52:50;;;;;;;6.50;4.15;;;;;;;17.98;77.39;101246.41;5073140;28;20064;-60
2022/10/18 06:55:17;;;;;;;5.85;4.75;;;;;;;18.02;76.63;101252.19;5067714;28;20500;-59
2022/10/18 06:57:44;;;;;;;6.72;4.50;;;;;;;18.04;77.29;101249.84;5071249;28;20052;-60
2022/10/18 07:00:14;;;;;;;6.70;4.60;;;;;;;18.08;77.12;101249.94;5072771;28;20413;-60
2022/10/18 07:02:41;;;;;;;5.72;4.40;;;;;;;18.11;76.46;101250.09;5072398;28;20079;-60
2022/10/18 07:05:10;;;;;;;6.55;4.15;;;;;;;18.08;76.97;101247.97;5072896;28;20067;-61
2022/10/18 07:07:37;;;;;;;7.68;4.60;;;;;;;18.11;76.84;101250.09;5072641;28;20061;-60
2022/10/18 07:10:05;;;;;;;7.30;4.38;;;;;;;18.13;77.15;101256.22;5071116;28;20055;-60
2022/10/18 07:12:34;;;;;;;7.65;4.90;;;;;;;18.12;76.50;101265.84;5068547;28;20061;-60
2022/10/18 07:15:01;;;;;;;7.15;4.07;;;;;;;18.14;76.73;101263.50;5072581;28;20056;-61
2022/10/18 07:17:30;;;;;;;7.00;4.88;;;;;;;18.18;77.33;101272.06;5080321;28;20062;-60
2022/10/18 07:19:57;;;;;;;7.80;5.28;;;;;;;18.20;77.09;101281.84;5092833;28;20055;-60
2022/10/18 07:22:24;;;;;;;8.68;6.50;;;;;;;18.22;77.24;101279.50;5093405;28;20067;-59
2022/10/18 07:24:51;;;;;;;11.57;7.88;;;;;;;18.23;77.17;101278.34;5093199;28;20060;-60
2022/10/18 07:27:19;;;;;;;12.32;9.68;;;;;;;18.23;77.28;101285.97;5077169;28;20053;-60
2022/10/18 07:29:47;;;;;;;9.98;7.47;;;;;;;18.23;76.53;101286.78;5068472;28;20476;-59
2022/10/18 07:32:14;;;;;;;10.75;6.35;;;;;;;18.24;77.58;101281.97;5071293;28;20409;-58
2022/10/18 07:34:43;;;;;;;11.68;5.72;;;;;;;18.28;77.03;101282.94;5052275;28;20145;-61
2022/10/18 07:37:10;;;;;;;10.80;6.33;;;;;;;18.22;76.22;101290.78;5052174;28;20053;-59
2022/10/18 07:39:37;;;;;;;6.40;4.30;;;;;;;18.28;77.00;101287.75;5052404;28;20053;-58
2022/10/18 07:42:05;;;;;;;8.40;5.93;;;;;;;18.29;76.28;101287.41;5051300;28;20053;-59
2022/10/18 07:44:32;;;;;;;12.35;6.03;;;;;;;18.33;76.79;101288.38;5052606;28;20053;-59
2022/10/18 07:46:59;;;;;;;8.73;5.82;;;;;;;18.35;76.26;101282.34;5051896;28;20061;-59
2022/10/18 07:49:26;;;;;;;11.85;7.28;;;;;;;18.33;76.16;101290.34;5052125;28;20057;-59
2022/10/18 07:51:55;;;;;;;9.13;5.85;;;;;;;18.35;76.62;101300.13;5052256;28;20057;-59
2022/10/18 07:54:22;;;;;;;7.63;5.83;;;;;;;18.43;76.58;101295.56;5052286;28;20057;-60
2022/10/18 07:56:49;;;;;;;12.32;7.63;;;;;;;18.40;76.23;101305.53;5051086;28;20061;-59
2022/10/18 07:59:17;;;;;;;13.38;7.57;;;;;;;18.39;75.84;101305.88;5050647;28;20061;-59
2022/10/18 08:01:44;;;;;;;12.15;6.88;;;;;;;18.42;76.43;101310.84;5051862;28;20489;-59
2022/10/18 08:04:11;;;;;;;11.77;7.78;;;;;;;18.46;76.02;101311.81;5052025;28;20068;-59
2022/10/18 08:06:38;;;;;;;13.48;8.73;;;;;;;18.39;76.01;101317.16;5051901;28;20053;-59
2022/10/18 08:09:07;;;;;;;13.65;8.32;;;;;;;18.35;76.58;101321.84;5050953;28;20064;-59
2022/10/18 08:11:34;;;;;;;15.60;8.73;;;;;;;18.40;76.11;101330.94;5052276;28;20061;-60
2022/10/18 08:14:01;;;;;;;13.98;8.90;;;;;;;18.46;76.18;101328.72;5051671;28;20068;-60
2022/10/18 08:16:30;;;;;;;17.05;9.98;;;;;;;18.43;76.51;101329.41;5051790;28;20107;-59
2022/10/18 08:18:58;;;;;;;20.45;11.43;;;;;;;18.49;75.96;101339.28;5071507;28;20196;-60
2022/10/18 08:21:26;;;;;;;18.33;10.52;;;;;;;18.53;75.74;101342.25;5067314;28;20054;-60
2022/10/18 08:23:53;;;;;;;24.67;13.15;;;;;;;18.43;76.02;101337.88;5056293;28;20068;-59
2022/10/18 08:26:23;;;;;;;15.85;10.00;;;;;;;18.45;76.10;101338.34;5054248;28;20493;-60
2022/10/18 08:28:51;;;;;;;21.45;11.23;;;;;;;18.50;76.07;101340.13;5056094;28;20053;-60
2022/10/18 08:31:19;;;;;;;18.98;12.23;;;;;;;18.60;75.95;101337.69;5055347;28;20061;-59
2022/10/18 08:33:47;;;;;;;15.50;10.27;;;;;;;18.73;76.30;101340.53;5055387;28;20049;-60
2022/10/18 08:36:16;;;;;;;22.17;13.35;;;;;;;18.82;75.48;101341.31;5055845;28;20057;-59
2022/10/18 08:38:44;;;;;;;27.05;14.68;;;;;;;18.85;75.91;101346.25;5055829;28;20060;-59
2022/10/18 08:41:28;;;;;;;30.00;17.90;;;;;;;18.92;74.62;101356.97;5054330;28;20409;-59
2022/10/18 08:44:04;;;;;;;32.22;18.58;;;;;;;18.96;75.75;101364.41;5055403;28;20072;-60
2022/10/18 08:46:35;;;;;;;37.00;19.23;;;;;;;19.02;74.43;101356.50;5055226;28;20053;-59
2022/10/18 08:49:04;;;;;;;32.35;19.20;;;;;;;19.09;75.20;101358.75;5055239;28;20524;-59
2022/10/18 08:51:39;;;;;;;29.75;18.90;;;;;;;19.13;74.73;101362.53;5055373;28;20056;-60
2022/10/18 08:54:12;;;;;;;28.35;17.85;;;;;;;19.15;74.01;101360.16;5053493;28;20049;-60
2022/10/18 08:56:45;;;;;;;32.92;19.40;;;;;;;19.16;74.12;101362.66;5054886;28;20060;-59
2022/10/18 08:59:13;;;;;;;34.33;21.45;;;;;;;19.19;73.97;101361.13;5053507;28;20500;-60
2022/10/18 09:01:49;;;;;;;30.65;19.80;;;;;;;19.16;73.24;101367.50;5053637;28;20337;-60
2022/10/18 09:04:35;;;;;;;33.40;20.95;;;;;;;19.16;73.20;101368.31;5053513;28;20057;-59
2022/10/18 09:07:23;;;;;;;34.78;21.30;;;;;;;19.16;73.76;101371.13;5055061;28;20071;-59
2022/10/18 09:09:56;;;;;;;35.08;21.50;;;;;;;19.16;74.12;101371.13;5055080;28;20413;-60
2022/10/18 09:12:43;;;;;;;31.55;19.02;;;;;;;19.17;73.29;101374.78;5054944;28;20057;-60
2022/10/18 09:15:16;;;;;;;42.88;30.58;;;;;;;19.14;73.48;101376.31;5053790;28;20059;-60
2022/10/18 09:17:57;;;;;;;33.05;21.13;;;;;;;19.12;74.06;101372.19;5064013;28;20493;-60
2022/10/18 09:20:26;;;;;;;33.70;21.50;;;;;;;19.13;73.12;101385.13;5074856;28;20408;-60
2022/10/18 09:22:57;;;;;;;31.95;21.45;;;;;;;19.13;73.29;101385.13;5054277;28;20064;-59
2022/10/18 09:25:31;;;;;;;30.05;20.33;;;;;;;19.10;73.53;101389.47;5054567;28;20486;-59
2022/10/18 09:28:15;;;;;;;29.27;19.77;;;;;;;19.08;73.94;101388.19;5054960;28;20064;-59
2022/10/18 09:30:50;;;;;;;32.22;21.33;;;;;;;19.12;73.65;101389.94;5049384;28;20053;-60
2022/10/18 09:33:29;;;;;;;33.72;21.92;;;;;;;19.16;73.53;101387.25;5054181;28;20057;-60
2022/10/18 09:35:59;;;;;;;33.67;22.30;;;;;;;19.21;73.65;101384.19;5054429;28;20493;-59
2022/10/18 09:38:31;;;;;;;29.63;19.70;;;;;;;19.30;73.40;101386.91;5054423;28;20068;-59
2022/10/18 09:41:02;;;;;;;32.92;22.10;;;;;;;19.37;73.56;101385.16;5054373;28;20057;-59
2022/10/18 09:43:42;;;;;;;26.70;19.60;;;;;;;19.42;72.89;101387.75;5054591;28;20057;-59
2022/10/18 09:46:10;;;;;;;29.65;20.98;;;;;;;19.43;72.82;101403.53;5049815;28;20061;-59
2022/10/18 09:48:45;;;;;;;30.35;20.45;;;;;;;19.45;72.35;101401.16;5054422;28;20057;-60
2022/10/18 09:51:20;;;;;;;31.73;20.23;;;;;;;19.48;72.55;101397.63;5034439;28;20053;-59
2022/10/18 09:54:00;;;;;;;29.02;19.60;;;;;;;19.52;73.03;101389.28;5040148;28;20052;-60
2022/10/18 09:56:32;;;;;;;26.58;19.80;;;;;;;19.58;72.68;101389.88;5053729;28;20457;-58
2022/10/18 09:59:01;;;;;;;28.88;21.33;;;;;;;19.68;72.06;101395.06;5054207;28;20057;-59
2022/10/18 10:01:30;;;;;;;28.88;21.55;;;;;;;19.75;72.38;101405.78;5054036;28;20090;-59
2022/10/18 10:03:57;;;;;;;29.38;22.05;;;;;;;19.80;72.52;101409.22;5053873;28;20053;-60
2022/10/18 10:06:27;;;;;;;31.67;21.08;;;;;;;19.88;71.68;101407.41;5053773;28;20057;-59
2022/10/18 10:08:55;;;;;;;;;;;;;;;19.93;71.15;101406.34;5052316;28;20405;-60
2022/10/18 10:11:31;;;;;;;27.52;20.48;;;;;;;19.99;71.78;101413.41;5052630;28;20399;-60
2022/10/18 10:14:09;;;;;;;29.60;22.58;;;;;;;20.06;71.26;101411.66;5053935;28;20064;-60
2022/10/18 10:16:46;;;;;;;31.70;24.25;;;;;;;20.14;71.11;101407.03;5053898;28;20060;-60
2022/10/18 10:19:24;;;;;;;30.27;23.30;;;;;;;20.13;70.89;101405.38;5053975;28;20061;-60
2022/10/18 10:21:57;;;;;;;36.40;26.05;;;;;;;20.07;70.18;101402.00;5051213;28;20056;-60
2022/10/18 10:24:29;;;;;;;35.85;28.58;;;;;;;20.08;70.60;101403.63;5053709;28;20409;-60
2022/10/18 10:27:03;;;;;;;34.50;26.17;;;;;;;20.10;70.49;101408.13;5050844;28;20053;-60
2022/10/18 10:29:57;;;;;;;34.03;25.85;;;;;;;20.14;69.90;101411.84;5053278;28;20063;-60
2022/10/18 10:32:27;;;;;;;29.75;23.85;;;;;;;20.24;70.23;101409.38;5051859;28;20474;-60
2022/10/18 10:34:55;;;;;;;32.53;25.10;;;;;;;20.41;69.79;101410.25;5073871;28;20060;-60
2022/10/18 10:37:31;;;;;;;31.10;23.88;;;;;;;20.56;68.41;101405.84;5073444;28;20416;-60
2022/10/18 10:40:18;;;;;;;30.90;24.00;;;;;;;20.73;68.21;101407.59;5072347;28;20067;-61
2022/10/18 10:43:11;;;;;;;30.30;22.40;;;;;;;20.94;67.33;101405.34;5073574;28;20063;-59
2022/10/18 10:45:55;;;;;;;26.27;20.75;;;;;;;21.39;66.26;101403.25;5073158;28;20057;-59
2022/10/18 10:48:23;;;;;;;31.15;24.48;;;;;;;21.92;64.50;101408.63;5073296;28;20056;-59
2022/10/18 10:50:54;;;;;;;30.10;22.90;;;;;;;22.26;63.30;101396.47;5090446;28;20052;-59
2022/10/18 10:53:32;;;;;;;28.85;22.50;;;;;;;22.68;62.05;101407.09;5091607;28;20072;-57
2022/10/18 10:56:00;;;;;;;28.08;22.83;;;;;;;23.26;60.74;101402.53;5058621;28;20063;-60
2022/10/18 10:58:33;;;;;;;27.88;21.20;;;;;;;24.59;56.75;101394.00;5072884;28;20061;-59
2022/10/18 11:01:18;;;;;;;23.80;21.20;;;;;;;25.29;53.01;101394.34;5072881;28;20056;-60
2022/10/18 11:03:47;;;;;;;23.35;18.70;;;;;;;25.20;53.56;101399.50;5073010;28;20063;-59
2022/10/18 11:06:34;;;;;;;26.15;20.77;;;;;;;24.89;54.29;101407.38;5072875;28;20056;-59
2022/10/18 11:09:09;;;;;;;23.25;20.25;;;;;;;24.48;54.84;101401.53;5071863;28;20063;-59
2022/10/18 11:11:45;;;;;;;28.50;24.00;;;;;;;24.14;56.15;101401.50;5072639;28;20056;-59
2022/10/18 11:14:20;;;;;;;28.38;22.73;;;;;;;23.74;56.42;101400.06;5072955;28;20489;-59
2022/10/18 11:16:58;;;;;;;28.17;24.65;;;;;;;23.37;57.21;101395.03;5072868;28;20068;-59
2022/10/18 11:19:36;;;;;;;26.65;22.38;;;;;;;23.14;57.79;101399.84;5072495;28;20063;-59
2022/10/18 11:22:07;;;;;;;26.48;22.00;;;;;;;23.12;57.84;101393.72;5069392;28;20493;-59
2022/10/18 11:24:35;;;;;;;25.77;20.95;;;;;;;23.45;58.20;101387.41;5052117;28;20076;-59
2022/10/18 11:27:10;;;;;;;27.08;22.20;;;;;;;23.59;56.87;101390.50;5052660;28;20065;-59
2022/10/18 11:29:49;;;;;;;26.77;21.20;;;;;;;23.84;57.14;101404.31;5052664;28;20060;-60
2022/10/18 11:32:25;;;;;;;25.42;21.10;;;;;;;24.06;55.87;101408.28;5051995;28;20057;-59
2022/10/18 11:35:07;;;;;;;25.67;20.65;;;;;;;24.08;54.39;101403.84;5070073;28;20068;-59
2022/10/18 11:37:49;;;;;;;25.40;21.83;;;;;;;23.97;54.67;101400.03;5072490;28;20060;-59
2022/10/18 11:40:32;;;;;;;24.35;20.52;;;;;;;23.84;55.04;101405.13;5072477;28;20060;-59
2022/10/18 11:43:09;;;;;;;24.77;19.55;;;;;;;23.78;55.69;101403.00;5072066;28;20516;-59